createdAt,value
2022-12-11T00:00:05.826Z,-0.42
2022-12-11T00:05:10.978Z,-0.45
2022-12-11T00:10:16.031Z,-0.46
2022-12-11T00:15:20.874Z,-0.43
2022-12-11T00:20:25.199Z,-0.48
2022-12-11T00:25:29.568Z,-0.52
2022-12-11T00:30:34.212Z,-0.51
2022-12-11T00:35:46.491Z,-0.57
2022-12-11T00:40:51.236Z,-0.59
2022-12-11T00:45:55.793Z,-0.59
2022-12-11T00:50:59.932Z,-0.54
2022-12-11T00:56:10.674Z,-0.53
2022-12-11T01:01:21.929Z,-0.58
2022-12-11T01:06:28.950Z,-0.53
2022-12-11T01:11:33.100Z,-0.54
2022-12-11T01:16:36.792Z,-0.62
2022-12-11T01:21:42.827Z,-0.66
2022-12-11T01:26:47.433Z,-0.66
2022-12-11T01:31:52.375Z,-0.71
2022-12-11T01:36:56.443Z,-0.75
2022-12-11T01:42:02.255Z,-0.73
2022-12-11T01:47:06.541Z,-0.75
2022-12-11T01:52:19.878Z,-0.77
2022-12-11T01:57:24.224Z,-0.72
2022-12-11T02:02:31.043Z,-0.76
2022-12-11T02:07:42.994Z,-0.84
2022-12-11T02:13:10.856Z,-0.87
2022-12-11T02:18:25.889Z,-0.89
2022-12-11T02:23:49.074Z,-0.98
2022-12-11T02:29:09.803Z,-1.04
2022-12-11T02:34:26.169Z,-1.07
2022-12-11T02:39:33.198Z,-1.14
2022-12-11T02:44:41.101Z,-1.17
2022-12-11T02:49:47.626Z,-1.21
2022-12-11T02:54:55.810Z,-1.24
2022-12-11T02:59:59.874Z,-1.17
2022-12-11T03:05:05.988Z,-1.19
2022-12-11T03:10:15.779Z,-1.26
2022-12-11T03:15:24.648Z,-1.25
2022-12-11T03:20:48.914Z,-1.23
2022-12-11T03:26:14.789Z,-1.30
2022-12-11T03:31:40.994Z,-1.35
2022-12-11T03:36:48.766Z,-1.34
2022-12-11T03:41:56.416Z,-1.40
2022-12-11T03:47:03.108Z,-1.48
2022-12-11T03:52:10.173Z,-1.46
2022-12-11T03:57:19.131Z,-1.46
2022-12-11T04:02:24.699Z,-1.48
2022-12-11T04:07:30.067Z,-1.39
2022-12-11T04:12:36.204Z,-1.38
2022-12-11T04:17:59.446Z,-1.44
2022-12-11T04:23:40.933Z,-1.43
2022-12-11T04:28:46.057Z,-1.48
2022-12-11T04:33:50.992Z,-1.54
2022-12-11T04:38:56.155Z,-1.52
2022-12-11T04:44:00.543Z,-1.52
2022-12-11T04:49:05.501Z,-1.55
2022-12-11T04:54:10.878Z,-1.52
2022-12-11T04:59:16.210Z,-1.56
2022-12-11T05:04:21.204Z,-1.62
2022-12-11T05:09:27.066Z,-1.58
2022-12-11T05:14:33.145Z,-1.58
2022-12-11T05:19:37.925Z,-1.59
2022-12-11T05:24:42.561Z,-1.58
2022-12-11T05:29:47.595Z,-1.50
2022-12-11T05:34:52.595Z,-1.51
2022-12-11T05:39:58.323Z,-1.56
2022-12-11T05:45:04.715Z,-1.59
2022-12-11T05:50:09.859Z,-1.55
2022-12-11T05:55:15.223Z,-1.51
2022-12-11T06:00:20.285Z,-1.55
2022-12-11T06:05:25.386Z,-1.56
2022-12-11T06:10:29.428Z,-1.53
2022-12-11T06:15:34.331Z,-1.60
2022-12-11T06:20:39.790Z,-1.70
2022-12-11T06:25:43.127Z,-1.73
2022-12-11T06:30:47.211Z,-1.84
2022-12-11T06:35:52.110Z,-1.87
2022-12-11T06:40:59.016Z,-1.86
2022-12-11T06:46:06.595Z,-1.89
2022-12-11T06:51:13.777Z,-1.91
2022-12-11T06:56:20.171Z,-1.96
2022-12-11T07:01:27.666Z,-1.97
2022-12-11T07:06:31.302Z,-1.98
2022-12-11T07:11:34.583Z,-1.99
2022-12-11T07:16:38.922Z,-1.95
2022-12-11T07:21:43.885Z,-1.90
2022-12-11T07:26:48.351Z,-1.92
2022-12-11T07:31:54.739Z,-1.95
2022-12-11T07:36:58.480Z,-1.97
2022-12-11T07:42:02.507Z,-1.98
2022-12-11T07:47:05.948Z,-2.03
2022-12-11T07:52:11.765Z,-2.04
2022-12-11T07:57:16.305Z,-2.05
2022-12-11T08:02:21.143Z,-2.10
2022-12-11T08:07:25.324Z,-2.11
2022-12-11T08:12:29.024Z,-2.08
2022-12-11T08:17:38.248Z,-2.00
2022-12-11T08:22:43.405Z,-2.03
2022-12-11T08:27:47.602Z,-2.03
2022-12-11T08:32:52.787Z,-1.97
2022-12-11T08:37:56.441Z,-1.92
2022-12-11T08:43:00.189Z,-1.86
2022-12-11T08:48:04.918Z,-1.80
2022-12-11T08:53:09.928Z,-1.70
2022-12-11T08:58:15.397Z,-1.64
2022-12-11T09:03:20.809Z,-1.58
2022-12-11T09:08:24.312Z,-1.52
2022-12-11T09:13:28.396Z,-1.46
2022-12-11T09:18:32.741Z,-1.34
2022-12-11T09:23:37.247Z,-1.25
2022-12-11T09:28:46.309Z,-1.22
2022-12-11T09:33:52.639Z,-1.20
2022-12-11T09:38:56.627Z,-1.12
2022-12-11T09:44:21.712Z,-1.03
2022-12-11T09:49:27.935Z,-0.97
2022-12-11T09:54:32.733Z,-0.97
2022-12-11T10:00:04.739Z,-1.05
2022-12-11T10:05:30.287Z,-1.07
2022-12-11T10:10:58.050Z,-1.07
2022-12-11T10:16:35.965Z,-1.12
2022-12-11T10:21:42.101Z,-1.13
2022-12-11T10:26:47.696Z,-1.04
2022-12-11T10:32:00.185Z,-0.98
2022-12-11T10:37:04.972Z,-1.01
2022-12-11T10:42:20.929Z,-0.97
2022-12-11T10:47:25.270Z,-0.97
2022-12-11T10:52:39.166Z,-0.95
2022-12-11T10:57:45.648Z,-0.96
2022-12-11T11:02:50.486Z,-0.98
2022-12-11T11:08:17.787Z,-1.00
2022-12-11T11:13:28.345Z,-0.97
2022-12-11T11:18:34.059Z,-1.03
2022-12-11T11:23:45.470Z,-1.03
2022-12-11T11:28:54.335Z,-0.99
2022-12-11T11:34:00.952Z,-0.96
2022-12-11T11:39:38.111Z,-0.95
2022-12-11T11:44:48.298Z,-0.93
2022-12-11T11:50:03.605Z,-0.81
2022-12-11T11:55:21.750Z,-0.82
2022-12-11T12:00:33.395Z,-0.88
2022-12-11T12:06:03.080Z,-0.93
2022-12-11T12:11:34.369Z,-0.93
2022-12-11T12:16:53.902Z,-0.92
2022-12-11T12:22:10.031Z,-0.88
2022-12-11T12:27:55.617Z,-0.87
2022-12-11T12:33:13.800Z,-0.81
2022-12-11T12:38:23.605Z,-0.82
2022-12-11T12:43:46.952Z,-0.86
2022-12-11T12:48:55.646Z,-0.90
2022-12-11T12:54:09.098Z,-0.96
2022-12-11T12:59:24.936Z,-1.02
2022-12-11T13:04:58.578Z,-1.07
2022-12-11T13:10:25.973Z,-1.12
2022-12-11T13:15:45.454Z,-1.19
2022-12-11T13:20:52.685Z,-1.16
2022-12-11T13:26:02.712Z,-1.20
2022-12-11T13:31:15.932Z,-1.31
2022-12-11T13:36:40.287Z,-1.39
2022-12-11T13:41:52.230Z,-1.42
2022-12-11T13:46:59.703Z,-1.41
2022-12-11T13:52:05.728Z,-1.41
2022-12-11T13:57:09.777Z,-1.49
2022-12-11T14:02:24.013Z,-1.57
2022-12-11T14:07:33.808Z,-1.65
2022-12-11T14:12:37.920Z,-1.70
2022-12-11T14:17:50.046Z,-1.73
2022-12-11T14:23:34.430Z,-1.81
2022-12-11T14:28:42.970Z,-1.89
2022-12-11T14:33:54.137Z,-1.86
2022-12-11T14:39:05.354Z,-1.88
2022-12-11T14:44:16.387Z,-1.94
2022-12-11T14:49:35.124Z,-2.03
2022-12-11T14:54:43.621Z,-2.09
2022-12-11T14:59:50.305Z,-2.06
2022-12-11T15:05:18.709Z,-2.04
2022-12-11T15:10:35.882Z,-2.05
2022-12-11T15:15:47.212Z,-2.13
2022-12-11T15:20:56.724Z,-2.19
2022-12-11T15:26:02.546Z,-2.15
2022-12-11T15:31:22.596Z,-2.13
2022-12-11T15:36:36.900Z,-2.12
2022-12-11T15:41:42.657Z,-2.18
2022-12-11T15:46:46.810Z,-2.28
2022-12-11T15:51:51.104Z,-2.30
2022-12-11T15:56:55.881Z,-2.32
2022-12-11T16:02:00.499Z,-2.37
2022-12-11T16:07:16.005Z,-2.41
2022-12-11T16:12:20.425Z,-2.44
2022-12-11T16:17:25.407Z,-2.42
2022-12-11T16:22:30.251Z,-2.43
2022-12-11T16:27:34.089Z,-2.48
2022-12-11T16:32:40.967Z,-2.60
2022-12-11T16:37:48.822Z,-2.65
2022-12-11T16:42:55.495Z,-2.56
2022-12-11T16:48:05.452Z,-2.54
2022-12-11T16:53:09.539Z,-2.61
2022-12-11T16:58:20.470Z,-2.66
2022-12-11T17:03:24.598Z,-2.69
2022-12-11T17:08:28.440Z,-2.68
2022-12-11T17:13:35.968Z,-2.68
2022-12-11T17:18:41.409Z,-2.69
2022-12-11T17:23:45.586Z,-2.73
2022-12-11T17:28:49.128Z,-2.74
2022-12-11T17:33:54.796Z,-2.74
2022-12-11T17:38:58.904Z,-2.75
2022-12-11T17:44:02.642Z,-2.68
2022-12-11T17:49:06.354Z,-2.67
2022-12-11T17:54:11.889Z,-2.67
2022-12-11T17:59:16.530Z,-2.70
2022-12-11T18:04:21.054Z,-2.70
2022-12-11T18:09:25.066Z,-2.66
2022-12-11T18:14:29.994Z,-2.73
2022-12-11T18:19:34.466Z,-2.74
2022-12-11T18:24:38.925Z,-2.76
2022-12-11T18:29:43.635Z,-2.76
2022-12-11T18:34:49.852Z,-2.72
2022-12-11T18:39:54.958Z,-2.79
2022-12-11T18:44:59.446Z,-2.84
2022-12-11T18:50:07.719Z,-2.91
2022-12-11T18:55:12.490Z,-2.93
2022-12-11T19:00:17.613Z,-2.89
2022-12-11T19:05:21.649Z,-2.85
2022-12-11T19:10:26.065Z,-2.89
2022-12-11T19:15:30.819Z,-2.92
2022-12-11T19:20:49.486Z,-2.92
2022-12-11T19:25:55.417Z,-2.88
2022-12-11T19:31:00.050Z,-2.88
2022-12-11T19:36:06.763Z,-2.87
2022-12-11T19:41:27.224Z,-2.89
2022-12-11T19:46:31.913Z,-2.94
2022-12-11T19:51:41.923Z,-2.95
2022-12-11T19:56:46.926Z,-2.90
2022-12-11T20:01:51.573Z,-2.85
2022-12-11T20:06:55.339Z,-2.83
2022-12-11T20:12:00.359Z,-2.86
2022-12-11T20:17:12.445Z,-2.88
2022-12-11T20:22:18.133Z,-2.84
2022-12-11T20:27:21.946Z,-2.84
2022-12-11T20:32:26.344Z,-2.86
2022-12-11T20:37:30.746Z,-2.91
2022-12-11T20:42:35.563Z,-2.93
2022-12-11T20:47:39.130Z,-2.89
2022-12-11T20:52:43.595Z,-2.92
2022-12-11T20:57:47.990Z,-2.92
2022-12-11T21:02:52.548Z,-2.92
2022-12-11T21:07:58.125Z,-2.83
2022-12-11T21:13:03.524Z,-2.82
2022-12-11T21:18:08.450Z,-2.85
2022-12-11T21:23:12.299Z,-2.85
2022-12-11T21:28:17.009Z,-2.89
2022-12-11T21:33:21.554Z,-2.86
2022-12-11T21:38:26.909Z,-2.80
2022-12-11T21:43:31.232Z,-2.79
2022-12-11T21:48:35.364Z,-2.85
2022-12-11T21:53:39.557Z,-2.83
2022-12-11T21:58:44.407Z,-2.81
2022-12-11T22:03:50.302Z,-2.83
2022-12-11T22:08:54.948Z,-2.86
2022-12-11T22:14:01.160Z,-2.86
2022-12-11T22:19:06.502Z,-2.81
2022-12-11T22:24:11.145Z,-2.74
2022-12-11T22:29:16.460Z,-2.71
2022-12-11T22:34:22.585Z,-2.73
2022-12-11T22:39:28.582Z,-2.73
2022-12-11T22:44:33.606Z,-2.70
2022-12-11T22:49:38.315Z,-2.66
2022-12-11T22:54:44.530Z,-2.60
2022-12-11T22:59:50.213Z,-2.55
2022-12-11T23:04:55.470Z,-2.53
2022-12-11T23:10:00.100Z,-2.54
2022-12-11T23:15:05.503Z,-2.56
2022-12-11T23:20:09.707Z,-2.53
2022-12-11T23:25:15.165Z,-2.50
2022-12-11T23:30:20.216Z,-2.47
2022-12-11T23:35:25.614Z,-2.45
2022-12-11T23:40:30.542Z,-2.41
2022-12-11T23:45:35.120Z,-2.35
2022-12-11T23:50:41.342Z,-2.29
2022-12-11T23:55:45.690Z,-2.26
